Time,TemperatureF,DewpointF,PressureIn,WindDirection,WindDirectionDegrees,WindSpeedMPH,WindSpeedGustMPH,Humidity,HourlyPrecipIn,Conditions,Clouds,dailyrainin,SolarRadiationWatts/m^2,SoftwareType,DateUTC
2013-09-08 00:00:00,69.0,65.0,-100.00,WNW,292,0.0,-999.0,86,-99.99,,,-99.99,0.000000,,2013-09-08 04:00:00,
2013-09-08 00:43:00,69.0,65.0,-100.00,WNW,292,0.0,-999.0,86,-99.99,,,-99.99,0.000000,,2013-09-08 04:43:00,
2013-09-08 00:54:00,69.0,65.0,-100.00,WNW,292,0.0,-999.0,86,-99.99,,,-99.99,0.000000,,2013-09-08 04:54:00,
2013-09-08 01:00:00,68.0,65.0,-100.00,WNW,292,0.0,-999.0,88,-99.99,,,-99.99,0.000000,,2013-09-08 05:00:00,
2013-09-08 01:43:00,68.0,65.0,-100.00,WNW,292,0.0,-999.0,88,-99.99,,,-99.99,0.000000,,2013-09-08 05:43:00,
2013-09-08 01:52:00,68.0,65.0,-100.00,WNW,292,0.0,-999.0,88,-99.99,,,-99.99,0.000000,,2013-09-08 05:52:00,
2013-09-08 04:00:00,65.0,63.0,-100.00,WSW,247,0.0,-999.0,91,-99.99,,,-99.99,0.000000,,2013-09-08 08:00:00,
2013-09-08 04:42:00,65.0,63.0,-100.00,WSW,247,0.0,-999.0,91,-99.99,,,-99.99,0.000000,,2013-09-08 08:42:00,
2013-09-08 04:52:00,65.0,63.0,-100.00,WSW,247,0.0,-999.0,91,-99.99,,,-99.99,0.000000,,2013-09-08 08:52:00,
2013-09-08 05:00:00,65.0,63.0,-100.00,WSW,247,0.0,-999.0,91,-99.99,,,-99.99,0.000000,,2013-09-08 09:00:00,
2013-09-08 05:43:00,65.0,63.0,-100.00,WSW,247,0.0,-999.0,91,-99.99,,,-99.99,0.000000,,2013-09-08 09:43:00,
2013-09-08 05:54:00,65.0,63.0,-100.00,WSW,247,0.0,-999.0,91,-99.99,,,-99.99,0.000000,,2013-09-08 09:54:00,
2013-09-08 06:00:00,65.0,63.0,-100.00,WNW,292,1.0,-999.0,91,-99.99,,,-99.99,0.000000,,2013-09-08 10:00:00,
2013-09-08 06:43:00,65.0,63.0,-100.00,WNW,292,1.0,-999.0,91,-99.99,,,-99.99,0.000000,,2013-09-08 10:43:00,
2013-09-08 06:53:00,65.0,63.0,-100.00,WNW,292,1.0,-999.0,91,-99.99,,,-99.99,0.000000,,2013-09-08 10:53:00,
2013-09-08 08:00:00,65.0,63.0,-100.00,WNW,292,5.0,-999.0,91,-99.99,,,-99.99,9.280000,,2013-09-08 12:00:00,
2013-09-08 08:42:00,65.0,63.0,-100.00,WNW,292,5.0,-999.0,91,-99.99,,,-99.99,9.280000,,2013-09-08 12:42:00,
2013-09-08 08:52:00,65.0,63.0,-100.00,WNW,292,5.0,-999.0,91,-99.99,,,-99.99,9.280000,,2013-09-08 12:52:00,
2013-09-08 09:00:00,66.0,63.0,-100.00,WNW,292,6.0,-999.0,91,-99.99,,,-99.99,49.880001,,2013-09-08 13:00:00,
2013-09-08 09:42:00,66.0,63.0,-100.00,WNW,292,6.0,-999.0,91,-99.99,,,-99.99,49.880001,,2013-09-08 13:42:00,
2013-09-08 09:52:00,66.0,63.0,-100.00,WNW,292,6.0,-999.0,91,-99.99,,,-99.99,49.880001,,2013-09-08 13:52:00,
2013-09-08 11:00:00,70.0,63.0,-100.00,NNW,337,8.0,-999.0,79,-99.99,,,-99.99,157.759995,,2013-09-08 15:00:00,
2013-09-08 11:45:00,70.0,63.0,-100.00,NNW,337,8.0,-999.0,79,-99.99,,,-99.99,157.759995,,2013-09-08 15:45:00,
2013-09-08 11:55:00,70.0,63.0,-100.00,NNW,337,8.0,-999.0,79,-99.99,,,-99.99,157.759995,,2013-09-08 15:55:00,
2013-09-08 12:00:00,70.0,62.0,-100.00,NW,315,10.0,-999.0,75,-99.99,,,-99.99,196.039993,,2013-09-08 16:00:00,
2013-09-08 12:44:00,70.0,62.0,-100.00,NW,315,10.0,-999.0,75,-99.99,,,-99.99,196.039993,,2013-09-08 16:44:00,
2013-09-08 12:53:00,70.0,62.0,-100.00,NW,315,10.0,-999.0,75,-99.99,,,-99.99,196.039993,,2013-09-08 16:53:00,
2013-09-08 13:00:00,70.0,61.0,-100.00,NNW,337,10.0,-999.0,71,-99.99,,,-99.99,247.080002,,2013-09-08 17:00:00,
2013-09-08 13:43:00,70.0,61.0,-100.00,NNW,337,10.0,-999.0,71,-99.99,,,-99.99,247.080002,,2013-09-08 17:43:00,
2013-09-08 13:53:00,70.0,61.0,-100.00,NNW,337,10.0,-999.0,71,-99.99,,,-99.99,247.080002,,2013-09-08 17:53:00,
2013-09-08 14:00:00,73.0,60.0,-100.00,NNW,337,10.0,-999.0,64,-99.99,,,-99.99,392.079987,,2013-09-08 18:00:00,
2013-09-08 14:42:00,73.0,60.0,-100.00,NNW,337,10.0,-999.0,64,-99.99,,,-99.99,392.079987,,2013-09-08 18:42:00,
2013-09-08 14:52:00,73.0,60.0,-100.00,NNW,337,10.0,-999.0,64,-99.99,,,-99.99,392.079987,,2013-09-08 18:52:00,
2013-09-08 15:00:00,75.0,60.0,-100.00,NNW,337,8.0,-999.0,60,-99.99,,,-99.99,429.200012,,2013-09-08 19:00:00,
2013-09-08 15:42:00,75.0,60.0,-100.00,NNW,337,8.0,-999.0,60,-99.99,,,-99.99,429.200012,,2013-09-08 19:42:00,
2013-09-08 15:52:00,75.0,60.0,-100.00,NNW,337,8.0,-999.0,60,-99.99,,,-99.99,429.200012,,2013-09-08 19:52:00,
2013-09-08 16:00:00,77.0,60.0,-100.00,North,0,8.0,-999.0,55,-99.99,,,-99.99,539.400024,,2013-09-08 20:00:00,
2013-09-08 16:42:00,77.0,60.0,-100.00,North,0,8.0,-999.0,55,-99.99,,,-99.99,539.400024,,2013-09-08 20:42:00,
2013-09-08 16:53:00,77.0,60.0,-100.00,North,0,8.0,-999.0,55,-99.99,,,-99.99,539.400024,,2013-09-08 20:53:00,
2013-09-08 17:00:00,78.0,59.0,-100.00,North,0,7.0,-999.0,52,-99.99,,,-99.99,373.519989,,2013-09-08 21:00:00,
2013-09-08 17:44:00,78.0,59.0,-100.00,North,0,7.0,-999.0,52,-99.99,,,-99.99,373.519989,,2013-09-08 21:44:00,
2013-09-08 17:54:00,78.0,59.0,-100.00,North,0,7.0,-999.0,52,-99.99,,,-99.99,373.519989,,2013-09-08 21:54:00,
2013-09-08 19:00:00,78.0,59.0,-100.00,NNE,22,6.0,-999.0,51,-99.99,,,-99.99,198.360001,,2013-09-08 23:00:00,
2013-09-08 19:42:00,78.0,59.0,-100.00,NNE,22,6.0,-999.0,51,-99.99,,,-99.99,198.360001,,2013-09-08 23:42:00,
2013-09-08 19:52:00,78.0,59.0,-100.00,NNE,22,6.0,-999.0,51,-99.99,,,-99.99,198.360001,,2013-09-08 23:52:00,
2013-09-08 21:00:00,72.0,60.0,-100.00,North,0,1.0,-999.0,66,-99.99,,,-99.99,1.160000,,2013-09-09 01:00:00,
2013-09-08 21:42:00,72.0,60.0,-100.00,North,0,1.0,-999.0,66,-99.99,,,-99.99,1.160000,,2013-09-09 01:42:00,
2013-09-08 21:52:00,72.0,60.0,-100.00,North,0,1.0,-999.0,66,-99.99,,,-99.99,1.160000,,2013-09-09 01:52:00,
2013-09-08 22:00:00,69.0,60.0,-100.00,NW,315,1.0,-999.0,74,-99.99,,,-99.99,0.000000,,2013-09-09 02:00:00,
2013-09-08 22:42:00,69.0,60.0,-100.00,NW,315,1.0,-999.0,74,-99.99,,,-99.99,0.000000,,2013-09-09 02:42:00,
2013-09-08 22:53:00,69.0,60.0,-100.00,NW,315,1.0,-999.0,74,-99.99,,,-99.99,0.000000,,2013-09-09 02:53:00,